sensor_id;sensor_type;location;lat;lon;timestamp;P1;durP1;ratioP1;P2;durP2;ratioP2
2021;SDS011;1015;49.756;6.994;2023-08-12T00:00:28;40.20;;;30.77;;
2021;SDS011;1015;49.756;6.994;2023-08-12T00:02:57;11.13;;;8.57;;
2021;SDS011;1015;49.756;6.994;2023-08-12T00:05:24;10.17;;;6.80;;
2021;SDS011;1015;49.756;6.994;2023-08-12T00:07:51;7.17;;;6.50;;
2021;SDS011;1015;49.756;6.994;2023-08-12T00:10:18;7.47;;;6.67;;
2021;SDS011;1015;49.756;6.994;2023-08-12T00:12:45;7.10;;;6.40;;
2021;SDS011;1015;49.756;6.994;2023-08-12T00:15:12;10.13;;;7.47;;
2021;SDS011;1015;49.756;6.994;2023-08-12T00:17:40;9.07;;;7.20;;
2021;SDS011;1015;49.756;6.994;2023-08-12T00:20:09;9.93;;;8.50;;
2021;SDS011;1015;49.756;6.994;2023-08-12T00:22:37;9.00;;;8.10;;
2021;SDS011;1015;49.756;6.994;2023-08-12T00:25:05;9.40;;;8.40;;
2021;SDS011;1015;49.756;6.994;2023-08-12T00:27:32;9.50;;;7.73;;
2021;SDS011;1015;49.756;6.994;2023-08-12T00:29:59;10.30;;;8.50;;
2021;SDS011;1015;49.756;6.994;2023-08-12T00:32:26;9.63;;;8.63;;
2021;SDS011;1015;49.756;6.994;2023-08-12T00:34:53;10.00;;;9.07;;
2021;SDS011;1015;49.756;6.994;2023-08-12T00:37:22;10.03;;;9.03;;
2021;SDS011;1015;49.756;6.994;2023-08-12T00:39:49;9.27;;;8.47;;
2021;SDS011;1015;49.756;6.994;2023-08-12T00:42:16;9.90;;;9.10;;
2021;SDS011;1015;49.756;6.994;2023-08-12T00:44:43;10.70;;;9.40;;
2021;SDS011;1015;49.756;6.994;2023-08-12T00:47:10;8.97;;;8.07;;
2021;SDS011;1015;49.756;6.994;2023-08-12T00:49:37;10.17;;;9.17;;
2021;SDS011;1015;49.756;6.994;2023-08-12T00:52:08;8.90;;;8.00;;
2021;SDS011;1015;49.756;6.994;2023-08-12T00:54:37;9.70;;;8.90;;
2021;SDS011;1015;49.756;6.994;2023-08-12T00:57:04;9.60;;;8.80;;
2021;SDS011;1015;49.756;6.994;2023-08-12T00:59:32;8.97;;;8.13;;
2021;SDS011;1015;49.756;6.994;2023-08-12T01:02:01;9.13;;;8.30;;
2021;SDS011;1015;49.756;6.994;2023-08-12T01:04:29;10.47;;;9.47;;
2021;SDS011;1015;49.756;6.994;2023-08-12T01:06:56;10.43;;;9.43;;
2021;SDS011;1015;49.756;6.994;2023-08-12T01:09:23;11.00;;;9.90;;
2021;SDS011;1015;49.756;6.994;2023-08-12T01:11:54;9.70;;;8.80;;
2021;SDS011;1015;49.756;6.994;2023-08-12T01:14:24;10.27;;;9.20;;
2021;SDS011;1015;49.756;6.994;2023-08-12T01:16:59;11.10;;;10.00;;
2021;SDS011;1015;49.756;6.994;2023-08-12T01:19:29;10.27;;;9.20;;
2021;SDS011;1015;49.756;6.994;2023-08-12T01:21:58;10.70;;;9.80;;
2021;SDS011;1015;49.756;6.994;2023-08-12T01:24:27;9.67;;;8.87;;
2021;SDS011;1015;49.756;6.994;2023-08-12T01:27:00;10.17;;;9.10;;
2021;SDS011;1015;49.756;6.994;2023-08-12T01:29:27;7.30;;;4.30;;
2021;SDS011;1015;49.756;6.994;2023-08-12T01:31:55;9.90;;;9.00;;
2021;SDS011;1015;49.756;6.994;2023-08-12T01:34:25;4.97;;;3.83;;
2021;SDS011;1015;49.756;6.994;2023-08-12T01:36:54;4.50;;;3.10;;
2021;SDS011;1015;49.756;6.994;2023-08-12T01:39:22;10.63;;;9.63;;
2021;SDS011;1015;49.756;6.994;2023-08-12T01:41:51;9.90;;;9.00;;
2021;SDS011;1015;49.756;6.994;2023-08-12T01:44:19;10.43;;;9.43;;
2021;SDS011;1015;49.756;6.994;2023-08-12T01:46:46;9.30;;;8.43;;
2021;SDS011;1015;49.756;6.994;2023-08-12T01:49:13;9.90;;;9.10;;
2021;SDS011;1015;49.756;6.994;2023-08-12T01:51:40;9.53;;;8.63;;
2021;SDS011;1015;49.756;6.994;2023-08-12T01:54:07;9.47;;;8.57;;
2021;SDS011;1015;49.756;6.994;2023-08-12T01:56:34;9.03;;;8.33;;
2021;SDS011;1015;49.756;6.994;2023-08-12T01:59:03;9.73;;;8.80;;
2021;SDS011;1015;49.756;6.994;2023-08-12T02:01:30;9.00;;;8.10;;
2021;SDS011;1015;49.756;6.994;2023-08-12T02:03:57;9.03;;;8.27;;
2021;SDS011;1015;49.756;6.994;2023-08-12T02:06:24;8.90;;;8.13;;
2021;SDS011;1015;49.756;6.994;2023-08-12T02:08:51;8.53;;;7.73;;
2021;SDS011;1015;49.756;6.994;2023-08-12T02:11:18;8.37;;;7.50;;
2021;SDS011;1015;49.756;6.994;2023-08-12T02:13:45;9.47;;;8.00;;
2021;SDS011;1015;49.756;6.994;2023-08-12T02:16:14;8.53;;;7.83;;
2021;SDS011;1015;49.756;6.994;2023-08-12T02:18:41;7.93;;;7.23;;
2021;SDS011;1015;49.756;6.994;2023-08-12T02:21:08;8.70;;;7.90;;
2021;SDS011;1015;49.756;6.994;2023-08-12T02:23:35;8.30;;;7.60;;
2021;SDS011;1015;49.756;6.994;2023-08-12T02:26:02;7.43;;;6.83;;
2021;SDS011;1015;49.756;6.994;2023-08-12T02:28:29;7.87;;;7.23;;
2021;SDS011;1015;49.756;6.994;2023-08-12T02:30:56;8.27;;;7.47;;
2021;SDS011;1015;49.756;6.994;2023-08-12T02:33:25;8.63;;;7.40;;
2021;SDS011;1015;49.756;6.994;2023-08-12T02:35:52;7.90;;;7.20;;
2021;SDS011;1015;49.756;6.994;2023-08-12T02:38:20;8.37;;;7.40;;
2021;SDS011;1015;49.756;6.994;2023-08-12T02:40:48;8.87;;;7.97;;
2021;SDS011;1015;49.756;6.994;2023-08-12T02:43:15;8.73;;;7.73;;
2021;SDS011;1015;49.756;6.994;2023-08-12T02:45:42;8.40;;;7.60;;
2021;SDS011;1015;49.756;6.994;2023-08-12T02:48:09;8.67;;;7.93;;
2021;SDS011;1015;49.756;6.994;2023-08-12T02:50:38;8.60;;;7.87;;
2021;SDS011;1015;49.756;6.994;2023-08-12T02:53:05;8.20;;;7.50;;
2021;SDS011;1015;49.756;6.994;2023-08-12T02:55:33;8.43;;;7.73;;
2021;SDS011;1015;49.756;6.994;2023-08-12T02:58:01;7.87;;;7.17;;
2021;SDS011;1015;49.756;6.994;2023-08-12T03:00:29;8.10;;;7.40;;
2021;SDS011;1015;49.756;6.994;2023-08-12T03:02:56;9.07;;;8.17;;
2021;SDS011;1015;49.756;6.994;2023-08-12T03:05:23;9.03;;;8.30;;
2021;SDS011;1015;49.756;6.994;2023-08-12T03:07:51;9.93;;;8.80;;
2021;SDS011;1015;49.756;6.994;2023-08-12T03:10:19;89.37;;;12.70;;
2021;SDS011;1015;49.756;6.994;2023-08-12T03:12:46;52.17;;;8.23;;
2021;SDS011;1015;49.756;6.994;2023-08-12T03:15:13;68.67;;;11.70;;
2021;SDS011;1015;49.756;6.994;2023-08-12T03:17:40;11.93;;;9.70;;
2021;SDS011;1015;49.756;6.994;2023-08-12T03:20:07;11.17;;;10.07;;
2021;SDS011;1015;49.756;6.994;2023-08-12T03:22:35;9.07;;;8.27;;
2021;SDS011;1015;49.756;6.994;2023-08-12T03:25:04;9.27;;;8.33;;
2021;SDS011;1015;49.756;6.994;2023-08-12T03:27:31;77.73;;;13.63;;
2021;SDS011;1015;49.756;6.994;2023-08-12T03:29:58;75.53;;;15.43;;
2021;SDS011;1015;49.756;6.994;2023-08-12T03:32:25;72.00;;;13.70;;
2021;SDS011;1015;49.756;6.994;2023-08-12T03:34:52;44.73;;;13.27;;
2021;SDS011;1015;49.756;6.994;2023-08-12T03:37:20;18.30;;;9.37;;
2021;SDS011;1015;49.756;6.994;2023-08-12T03:39:47;65.60;;;12.27;;
2021;SDS011;1015;49.756;6.994;2023-08-12T03:42:15;185.17;;;21.07;;
2021;SDS011;1015;49.756;6.994;2023-08-12T03:44:42;36.20;;;8.17;;
2021;SDS011;1015;49.756;6.994;2023-08-12T03:47:09;113.63;;;13.07;;
2021;SDS011;1015;49.756;6.994;2023-08-12T03:49:36;115.67;;;12.50;;
2021;SDS011;1015;49.756;6.994;2023-08-12T03:52:04;139.93;;;15.13;;
2021;SDS011;1015;49.756;6.994;2023-08-12T03:54:32;192.57;;;16.53;;
2021;SDS011;1015;49.756;6.994;2023-08-12T03:56:59;70.70;;;12.20;;
2021;SDS011;1015;49.756;6.994;2023-08-12T03:59:27;69.57;;;10.50;;
2021;SDS011;1015;49.756;6.994;2023-08-12T04:01:54;20.23;;;7.50;;
2021;SDS011;1015;49.756;6.994;2023-08-12T04:04:22;21.77;;;8.30;;
2021;SDS011;1015;49.756;6.994;2023-08-12T04:06:49;12.53;;;7.10;;
2021;SDS011;1015;49.756;6.994;2023-08-12T04:09:17;7.90;;;7.20;;
2021;SDS011;1015;49.756;6.994;2023-08-12T04:11:44;8.40;;;7.70;;
2021;SDS011;1015;49.756;6.994;2023-08-12T04:14:11;11.93;;;7.70;;
2021;SDS011;1015;49.756;6.994;2023-08-12T04:16:40;11.43;;;9.30;;
2021;SDS011;1015;49.756;6.994;2023-08-12T04:19:08;9.13;;;8.23;;
2021;SDS011;1015;49.756;6.994;2023-08-12T04:21:35;9.70;;;8.70;;
2021;SDS011;1015;49.756;6.994;2023-08-12T04:24:02;9.10;;;8.30;;
2021;SDS011;1015;49.756;6.994;2023-08-12T04:26:29;8.73;;;8.03;;
2021;SDS011;1015;49.756;6.994;2023-08-12T04:28:57;8.80;;;7.93;;
2021;SDS011;1015;49.756;6.994;2023-08-12T04:31:24;10.43;;;9.40;;
2021;SDS011;1015;49.756;6.994;2023-08-12T04:33:52;9.90;;;9.00;;
2021;SDS011;1015;49.756;6.994;2023-08-12T04:36:19;10.57;;;9.40;;
2021;SDS011;1015;49.756;6.994;2023-08-12T04:38:46;8.97;;;7.77;;
2021;SDS011;1015;49.756;6.994;2023-08-12T04:41:13;9.77;;;8.87;;
2021;SDS011;1015;49.756;6.994;2023-08-12T04:43:40;9.50;;;8.60;;
2021;SDS011;1015;49.756;6.994;2023-08-12T04:46:07;11.43;;;8.40;;
2021;SDS011;1015;49.756;6.994;2023-08-12T04:48:34;13.10;;;8.70;;
2021;SDS011;1015;49.756;6.994;2023-08-12T04:51:03;11.03;;;8.60;;
2021;SDS011;1015;49.756;6.994;2023-08-12T04:53:30;55.13;;;13.03;;
2021;SDS011;1015;49.756;6.994;2023-08-12T04:55:57;9.57;;;8.67;;
2021;SDS011;1015;49.756;6.994;2023-08-12T04:58:25;10.40;;;9.40;;
2021;SDS011;1015;49.756;6.994;2023-08-12T05:00:52;9.90;;;8.87;;
2021;SDS011;1015;49.756;6.994;2023-08-12T05:03:19;9.10;;;8.20;;
2021;SDS011;1015;49.756;6.994;2023-08-12T05:05:48;10.73;;;9.63;;
2021;SDS011;1015;49.756;6.994;2023-08-12T05:08:16;10.17;;;9.27;;
2021;SDS011;1015;49.756;6.994;2023-08-12T05:10:44;9.33;;;8.30;;
2021;SDS011;1015;49.756;6.994;2023-08-12T05:13:13;9.10;;;8.20;;
2021;SDS011;1015;49.756;6.994;2023-08-12T05:15:40;8.63;;;7.83;;
2021;SDS011;1015;49.756;6.994;2023-08-12T05:18:08;9.80;;;7.90;;
2021;SDS011;1015;49.756;6.994;2023-08-12T05:20:35;7.70;;;7.10;;
2021;SDS011;1015;49.756;6.994;2023-08-12T05:23:02;7.83;;;7.10;;
2021;SDS011;1015;49.756;6.994;2023-08-12T05:25:30;9.83;;;8.93;;
2021;SDS011;1015;49.756;6.994;2023-08-12T05:27:57;8.67;;;7.87;;
2021;SDS011;1015;49.756;6.994;2023-08-12T05:30:24;9.23;;;8.40;;
2021;SDS011;1015;49.756;6.994;2023-08-12T05:32:51;10.00;;;9.07;;
2021;SDS011;1015;49.756;6.994;2023-08-12T05:35:18;9.70;;;8.90;;
2021;SDS011;1015;49.756;6.994;2023-08-12T05:37:45;9.13;;;8.33;;
2021;SDS011;1015;49.756;6.994;2023-08-12T05:40:13;8.43;;;7.73;;
2021;SDS011;1015;49.756;6.994;2023-08-12T05:42:41;8.77;;;7.97;;
2021;SDS011;1015;49.756;6.994;2023-08-12T05:45:08;8.17;;;7.47;;
2021;SDS011;1015;49.756;6.994;2023-08-12T05:47:36;8.97;;;8.27;;
2021;SDS011;1015;49.756;6.994;2023-08-12T05:50:03;9.20;;;8.40;;
2021;SDS011;1015;49.756;6.994;2023-08-12T05:52:31;8.73;;;7.90;;
2021;SDS011;1015;49.756;6.994;2023-08-12T05:54:58;9.30;;;8.40;;
2021;SDS011;1015;49.756;6.994;2023-08-12T05:57:25;10.37;;;8.57;;
2021;SDS011;1015;49.756;6.994;2023-08-12T05:59:54;8.77;;;7.97;;
2021;SDS011;1015;49.756;6.994;2023-08-12T06:02:21;9.13;;;8.33;;
2021;SDS011;1015;49.756;6.994;2023-08-12T06:04:48;9.47;;;8.60;;
2021;SDS011;1015;49.756;6.994;2023-08-12T06:07:15;8.90;;;8.10;;
2021;SDS011;1015;49.756;6.994;2023-08-12T06:09:43;8.40;;;7.70;;
2021;SDS011;1015;49.756;6.994;2023-08-12T06:12:10;7.43;;;6.80;;
2021;SDS011;1015;49.756;6.994;2023-08-12T06:14:37;8.67;;;7.77;;
2021;SDS011;1015;49.756;6.994;2023-08-12T06:17:06;8.77;;;7.57;;
2021;SDS011;1015;49.756;6.994;2023-08-12T06:19:33;7.90;;;7.20;;
2021;SDS011;1015;49.756;6.994;2023-08-12T06:22:00;8.57;;;7.70;;
2021;SDS011;1015;49.756;6.994;2023-08-12T06:24:28;7.80;;;7.00;;
2021;SDS011;1015;49.756;6.994;2023-08-12T06:26:55;8.00;;;7.30;;
2021;SDS011;1015;49.756;6.994;2023-08-12T06:29:22;7.87;;;6.93;;
2021;SDS011;1015;49.756;6.994;2023-08-12T06:31:49;8.27;;;6.53;;
2021;SDS011;1015;49.756;6.994;2023-08-12T06:34:17;7.17;;;6.47;;
2021;SDS011;1015;49.756;6.994;2023-08-12T06:36:45;6.73;;;5.90;;
2021;SDS011;1015;49.756;6.994;2023-08-12T06:39:12;6.20;;;5.70;;
2021;SDS011;1015;49.756;6.994;2023-08-12T06:41:39;5.87;;;5.47;;
2021;SDS011;1015;49.756;6.994;2023-08-12T06:44:06;6.30;;;5.80;;
2021;SDS011;1015;49.756;6.994;2023-08-12T06:46:33;5.90;;;5.40;;
2021;SDS011;1015;49.756;6.994;2023-08-12T06:49:00;6.30;;;5.70;;
2021;SDS011;1015;49.756;6.994;2023-08-12T06:51:29;6.73;;;5.90;;
2021;SDS011;1015;49.756;6.994;2023-08-12T06:53:56;5.87;;;5.37;;
2021;SDS011;1015;49.756;6.994;2023-08-12T06:56:23;5.40;;;4.90;;
2021;SDS011;1015;49.756;6.994;2023-08-12T06:58:50;5.20;;;4.80;;
2021;SDS011;1015;49.756;6.994;2023-08-12T07:01:17;4.63;;;4.23;;
2021;SDS011;1015;49.756;6.994;2023-08-12T07:03:44;5.13;;;4.67;;
2021;SDS011;1015;49.756;6.994;2023-08-12T07:06:11;4.63;;;4.13;;
2021;SDS011;1015;49.756;6.994;2023-08-12T07:08:40;4.13;;;3.73;;
2021;SDS011;1015;49.756;6.994;2023-08-12T07:11:07;4.17;;;3.77;;
2021;SDS011;1015;49.756;6.994;2023-08-12T07:13:34;3.87;;;3.57;;
2021;SDS011;1015;49.756;6.994;2023-08-12T07:16:01;3.70;;;3.40;;
2021;SDS011;1015;49.756;6.994;2023-08-12T07:18:28;4.93;;;4.07;;
2021;SDS011;1015;49.756;6.994;2023-08-12T07:20:56;3.50;;;3.20;;
2021;SDS011;1015;49.756;6.994;2023-08-12T07:23:24;4.23;;;3.20;;
2021;SDS011;1015;49.756;6.994;2023-08-12T07:25:53;4.50;;;3.50;;
2021;SDS011;1015;49.756;6.994;2023-08-12T07:28:20;3.77;;;3.43;;
2021;SDS011;1015;49.756;6.994;2023-08-12T07:30:48;3.33;;;3.00;;
2021;SDS011;1015;49.756;6.994;2023-08-12T07:33:15;3.93;;;3.40;;
2021;SDS011;1015;49.756;6.994;2023-08-12T07:35:42;5.30;;;3.47;;
2021;SDS011;1015;49.756;6.994;2023-08-12T07:38:09;3.47;;;3.17;;
2021;SDS011;1015;49.756;6.994;2023-08-12T07:40:36;5.23;;;3.20;;
2021;SDS011;1015;49.756;6.994;2023-08-12T07:43:04;4.03;;;3.53;;
2021;SDS011;1015;49.756;6.994;2023-08-12T07:45:32;3.00;;;2.80;;
2021;SDS011;1015;49.756;6.994;2023-08-12T07:47:59;5.33;;;3.60;;
2021;SDS011;1015;49.756;6.994;2023-08-12T07:50:26;4.50;;;3.27;;
2021;SDS011;1015;49.756;6.994;2023-08-12T07:52:53;3.73;;;3.33;;
2021;SDS011;1015;49.756;6.994;2023-08-12T07:55:20;3.47;;;3.20;;
2021;SDS011;1015;49.756;6.994;2023-08-12T07:57:47;3.37;;;3.07;;
2021;SDS011;1015;49.756;6.994;2023-08-12T08:00:16;3.50;;;3.20;;
2021;SDS011;1015;49.756;6.994;2023-08-12T08:02:43;3.50;;;3.20;;
2021;SDS011;1015;49.756;6.994;2023-08-12T08:05:10;3.53;;;3.23;;
2021;SDS011;1015;49.756;6.994;2023-08-12T08:07:37;4.27;;;3.67;;
2021;SDS011;1015;49.756;6.994;2023-08-12T08:10:05;3.80;;;3.50;;
2021;SDS011;1015;49.756;6.994;2023-08-12T08:12:32;3.40;;;3.10;;
2021;SDS011;1015;49.756;6.994;2023-08-12T08:14:59;3.80;;;3.50;;
2021;SDS011;1015;49.756;6.994;2023-08-12T08:17:29;5.40;;;3.57;;
2021;SDS011;1015;49.756;6.994;2023-08-12T08:19:56;4.00;;;3.47;;
2021;SDS011;1015;49.756;6.994;2023-08-12T08:22:23;3.60;;;3.30;;
2021;SDS011;1015;49.756;6.994;2023-08-12T08:24:50;4.37;;;3.57;;
2021;SDS011;1015;49.756;6.994;2023-08-12T08:27:17;4.63;;;3.33;;
2021;SDS011;1015;49.756;6.994;2023-08-12T08:29:45;3.60;;;3.30;;
2021;SDS011;1015;49.756;6.994;2023-08-12T08:32:12;4.50;;;3.70;;
2021;SDS011;1015;49.756;6.994;2023-08-12T08:34:40;4.10;;;3.57;;
2021;SDS011;1015;49.756;6.994;2023-08-12T08:37:07;4.13;;;3.73;;
2021;SDS011;1015;49.756;6.994;2023-08-12T08:39:35;4.00;;;3.70;;
2021;SDS011;1015;49.756;6.994;2023-08-12T08:42:02;4.37;;;3.97;;
2021;SDS011;1015;49.756;6.994;2023-08-12T08:44:30;4.30;;;3.90;;
2021;SDS011;1015;49.756;6.994;2023-08-12T08:46:58;8.17;;;4.20;;
2021;SDS011;1015;49.756;6.994;2023-08-12T08:49:26;4.50;;;4.10;;
2021;SDS011;1015;49.756;6.994;2023-08-12T08:51:54;4.50;;;4.10;;
2021;SDS011;1015;49.756;6.994;2023-08-12T08:54:22;4.40;;;4.00;;
2021;SDS011;1015;49.756;6.994;2023-08-12T08:56:49;4.27;;;3.80;;
2021;SDS011;1015;49.756;6.994;2023-08-12T08:59:16;4.67;;;4.27;;
2021;SDS011;1015;49.756;6.994;2023-08-12T09:01:43;4.63;;;4.23;;
2021;SDS011;1015;49.756;6.994;2023-08-12T09:04:13;4.77;;;4.37;;
2021;SDS011;1015;49.756;6.994;2023-08-12T09:06:41;5.30;;;4.90;;
2021;SDS011;1015;49.756;6.994;2023-08-12T09:09:12;5.37;;;4.87;;
2021;SDS011;1015;49.756;6.994;2023-08-12T09:11:40;4.90;;;4.50;;
2021;SDS011;1015;49.756;6.994;2023-08-12T09:14:09;5.50;;;4.77;;
2021;SDS011;1015;49.756;6.994;2023-08-12T09:16:36;4.90;;;4.50;;
2021;SDS011;1015;49.756;6.994;2023-08-12T09:19:03;5.00;;;4.50;;
2021;SDS011;1015;49.756;6.994;2023-08-12T09:21:30;5.10;;;4.70;;
2021;SDS011;1015;49.756;6.994;2023-08-12T09:23:57;4.70;;;4.40;;
2021;SDS011;1015;49.756;6.994;2023-08-12T09:26:30;5.67;;;4.43;;
2021;SDS011;1015;49.756;6.994;2023-08-12T09:28:57;4.40;;;4.10;;
2021;SDS011;1015;49.756;6.994;2023-08-12T09:31:26;4.73;;;4.33;;
2021;SDS011;1015;49.756;6.994;2023-08-12T09:33:53;7.60;;;4.53;;
2021;SDS011;1015;49.756;6.994;2023-08-12T09:36:21;5.60;;;4.70;;
2021;SDS011;1015;49.756;6.994;2023-08-12T09:38:48;3.97;;;3.67;;
2021;SDS011;1015;49.756;6.994;2023-08-12T09:41:15;4.27;;;3.93;;
2021;SDS011;1015;49.756;6.994;2023-08-12T09:43:44;5.23;;;4.80;;
2021;SDS011;1015;49.756;6.994;2023-08-12T09:46:12;8.07;;;7.27;;
2021;SDS011;1015;49.756;6.994;2023-08-12T09:48:40;9.20;;;8.27;;
2021;SDS011;1015;49.756;6.994;2023-08-12T09:51:07;13.17;;;11.53;;
2021;SDS011;1015;49.756;6.994;2023-08-12T09:53:34;15.57;;;13.93;;
2021;SDS011;1015;49.756;6.994;2023-08-12T09:56:03;16.30;;;14.80;;
2021;SDS011;1015;49.756;6.994;2023-08-12T09:58:32;16.80;;;15.10;;
2021;SDS011;1015;49.756;6.994;2023-08-12T10:01:03;16.07;;;14.40;;
2021;SDS011;1015;49.756;6.994;2023-08-12T10:03:31;16.33;;;14.73;;
2021;SDS011;1015;49.756;6.994;2023-08-12T10:06:00;16.00;;;14.40;;
2021;SDS011;1015;49.756;6.994;2023-08-12T10:08:28;15.50;;;13.90;;
2021;SDS011;1015;49.756;6.994;2023-08-12T10:10:55;14.77;;;13.37;;
2021;SDS011;1015;49.756;6.994;2023-08-12T10:13:22;15.40;;;13.50;;
2021;SDS011;1015;49.756;6.994;2023-08-12T10:15:49;13.70;;;12.40;;
2021;SDS011;1015;49.756;6.994;2023-08-12T10:18:19;13.63;;;11.40;;
2021;SDS011;1015;49.756;6.994;2023-08-12T10:20:46;11.53;;;10.40;;
2021;SDS011;1015;49.756;6.994;2023-08-12T10:23:15;11.33;;;10.07;;
2021;SDS011;1015;49.756;6.994;2023-08-12T10:25:43;9.50;;;8.50;;
2021;SDS011;1015;49.756;6.994;2023-08-12T10:28:10;8.23;;;7.43;;
2021;SDS011;1015;49.756;6.994;2023-08-12T10:30:39;8.43;;;7.60;;
2021;SDS011;1015;49.756;6.994;2023-08-12T10:33:07;6.73;;;6.13;;
2021;SDS011;1015;49.756;6.994;2023-08-12T10:35:45;6.10;;;5.50;;
2021;SDS011;1015;49.756;6.994;2023-08-12T10:38:13;6.80;;;5.13;;
2021;SDS011;1015;49.756;6.994;2023-08-12T10:40:41;5.57;;;4.87;;
2021;SDS011;1015;49.756;6.994;2023-08-12T10:43:08;5.57;;;5.07;;
2021;SDS011;1015;49.756;6.994;2023-08-12T10:45:42;5.30;;;4.90;;
2021;SDS011;1015;49.756;6.994;2023-08-12T10:48:10;5.37;;;4.87;;
2021;SDS011;1015;49.756;6.994;2023-08-12T10:50:44;5.03;;;4.53;;
2021;SDS011;1015;49.756;6.994;2023-08-12T10:53:22;4.97;;;4.57;;
2021;SDS011;1015;49.756;6.994;2023-08-12T10:55:53;5.20;;;4.80;;
2021;SDS011;1015;49.756;6.994;2023-08-12T10:58:25;5.60;;;5.00;;
2021;SDS011;1015;49.756;6.994;2023-08-12T11:00:53;5.23;;;4.83;;
2021;SDS011;1015;49.756;6.994;2023-08-12T11:03:20;5.27;;;4.87;;
2021;SDS011;1015;49.756;6.994;2023-08-12T11:05:48;5.13;;;4.70;;
2021;SDS011;1015;49.756;6.994;2023-08-12T11:08:20;4.83;;;4.20;;
2021;SDS011;1015;49.756;6.994;2023-08-12T11:10:50;5.57;;;4.00;;
2021;SDS011;1015;49.756;6.994;2023-08-12T11:13:17;7.27;;;4.50;;
2021;SDS011;1015;49.756;6.994;2023-08-12T11:15:47;4.20;;;3.80;;
2021;SDS011;1015;49.756;6.994;2023-08-12T11:18:16;3.60;;;3.30;;
2021;SDS011;1015;49.756;6.994;2023-08-12T11:20:43;3.67;;;3.37;;
2021;SDS011;1015;49.756;6.994;2023-08-12T11:23:12;3.90;;;3.60;;
2021;SDS011;1015;49.756;6.994;2023-08-12T11:25:39;5.33;;;3.20;;
2021;SDS011;1015;49.756;6.994;2023-08-12T11:28:07;3.80;;;3.50;;
2021;SDS011;1015;49.756;6.994;2023-08-12T11:30:35;3.43;;;3.13;;
2021;SDS011;1015;49.756;6.994;2023-08-12T11:33:02;4.40;;;3.13;;
2021;SDS011;1015;49.756;6.994;2023-08-12T11:35:29;3.87;;;3.50;;
2021;SDS011;1015;49.756;6.994;2023-08-12T11:37:57;4.47;;;3.90;;
2021;SDS011;1015;49.756;6.994;2023-08-12T11:40:26;4.20;;;3.80;;
2021;SDS011;1015;49.756;6.994;2023-08-12T11:42:54;4.10;;;3.70;;
2021;SDS011;1015;49.756;6.994;2023-08-12T11:45:22;5.03;;;3.70;;
2021;SDS011;1015;49.756;6.994;2023-08-12T11:47:50;4.77;;;3.70;;
2021;SDS011;1015;49.756;6.994;2023-08-12T11:50:19;7.67;;;3.93;;
2021;SDS011;1015;49.756;6.994;2023-08-12T11:52:46;4.50;;;3.70;;
2021;SDS011;1015;49.756;6.994;2023-08-12T11:55:13;3.53;;;3.30;;
2021;SDS011;1015;49.756;6.994;2023-08-12T11:57:42;3.87;;;3.50;;
2021;SDS011;1015;49.756;6.994;2023-08-12T12:00:10;3.93;;;3.63;;
2021;SDS011;1015;49.756;6.994;2023-08-12T12:02:40;3.77;;;3.47;;
2021;SDS011;1015;49.756;6.994;2023-08-12T12:05:07;3.50;;;2.90;;
2021;SDS011;1015;49.756;6.994;2023-08-12T12:07:35;4.57;;;3.07;;
2021;SDS011;1015;49.756;6.994;2023-08-12T12:10:03;3.70;;;3.17;;
2021;SDS011;1015;49.756;6.994;2023-08-12T12:12:32;4.63;;;3.10;;
2021;SDS011;1015;49.756;6.994;2023-08-12T12:15:01;3.50;;;3.20;;
2021;SDS011;1015;49.756;6.994;2023-08-12T12:17:29;3.40;;;3.10;;
2021;SDS011;1015;49.756;6.994;2023-08-12T12:19:56;4.33;;;2.93;;
2021;SDS011;1015;49.756;6.994;2023-08-12T12:22:27;3.10;;;2.90;;
2021;SDS011;1015;49.756;6.994;2023-08-12T12:24:57;3.27;;;2.97;;
2021;SDS011;1015;49.756;6.994;2023-08-12T12:27:24;2.90;;;2.70;;
2021;SDS011;1015;49.756;6.994;2023-08-12T12:29:51;4.33;;;3.10;;
2021;SDS011;1015;49.756;6.994;2023-08-12T12:32:20;3.30;;;3.00;;
2021;SDS011;1015;49.756;6.994;2023-08-12T12:34:47;3.40;;;3.07;;
2021;SDS011;1015;49.756;6.994;2023-08-12T12:37:14;3.33;;;3.03;;
2021;SDS011;1015;49.756;6.994;2023-08-12T12:39:41;5.60;;;3.33;;
2021;SDS011;1015;49.756;6.994;2023-08-12T12:42:09;3.63;;;2.80;;
2021;SDS011;1015;49.756;6.994;2023-08-12T12:44:36;4.47;;;2.83;;
2021;SDS011;1015;49.756;6.994;2023-08-12T12:47:04;4.80;;;2.80;;
2021;SDS011;1015;49.756;6.994;2023-08-12T12:49:32;3.80;;;2.80;;
2021;SDS011;1015;49.756;6.994;2023-08-12T12:51:59;3.30;;;2.83;;
2021;SDS011;1015;49.756;6.994;2023-08-12T12:54:26;3.40;;;2.90;;
2021;SDS011;1015;49.756;6.994;2023-08-12T12:56:55;3.20;;;3.00;;
2021;SDS011;1015;49.756;6.994;2023-08-12T12:59:23;3.23;;;2.93;;
2021;SDS011;1015;49.756;6.994;2023-08-12T13:01:50;4.30;;;3.10;;
2021;SDS011;1015;49.756;6.994;2023-08-12T13:04:17;4.97;;;3.30;;
2021;SDS011;1015;49.756;6.994;2023-08-12T13:06:45;2.87;;;2.50;;
2021;SDS011;1015;49.756;6.994;2023-08-12T13:09:12;3.10;;;2.70;;
2021;SDS011;1015;49.756;6.994;2023-08-12T13:11:39;3.60;;;2.43;;
2021;SDS011;1015;49.756;6.994;2023-08-12T13:14:06;3.97;;;2.97;;
2021;SDS011;1015;49.756;6.994;2023-08-12T13:16:33;2.63;;;2.43;;
2021;SDS011;1015;49.756;6.994;2023-08-12T13:19:01;4.30;;;2.50;;
2021;SDS011;1015;49.756;6.994;2023-08-12T13:21:28;2.90;;;2.70;;
2021;SDS011;1015;49.756;6.994;2023-08-12T13:23:58;6.47;;;2.70;;
2021;SDS011;1015;49.756;6.994;2023-08-12T13:26:26;3.70;;;2.70;;
2021;SDS011;1015;49.756;6.994;2023-08-12T13:28:53;2.80;;;2.60;;
2021;SDS011;1015;49.756;6.994;2023-08-12T13:31:20;3.53;;;2.83;;
2021;SDS011;1015;49.756;6.994;2023-08-12T13:33:47;4.30;;;3.17;;
2021;SDS011;1015;49.756;6.994;2023-08-12T13:36:14;2.80;;;2.60;;
2021;SDS011;1015;49.756;6.994;2023-08-12T13:38:41;3.07;;;2.87;;
2021;SDS011;1015;49.756;6.994;2023-08-12T13:41:10;3.67;;;3.10;;
2021;SDS011;1015;49.756;6.994;2023-08-12T13:43:37;2.83;;;2.63;;
2021;SDS011;1015;49.756;6.994;2023-08-12T13:46:04;3.70;;;2.70;;
2021;SDS011;1015;49.756;6.994;2023-08-12T13:48:31;4.17;;;2.60;;
2021;SDS011;1015;49.756;6.994;2023-08-12T13:50:58;2.90;;;2.60;;
2021;SDS011;1015;49.756;6.994;2023-08-12T13:53:25;2.70;;;2.50;;
2021;SDS011;1015;49.756;6.994;2023-08-12T13:55:52;4.47;;;2.87;;
2021;SDS011;1015;49.756;6.994;2023-08-12T13:58:20;3.27;;;2.63;;
2021;SDS011;1015;49.756;6.994;2023-08-12T14:00:47;3.80;;;3.03;;
2021;SDS011;1015;49.756;6.994;2023-08-12T14:03:15;5.73;;;3.13;;
2021;SDS011;1015;49.756;6.994;2023-08-12T14:05:42;3.67;;;2.87;;
2021;SDS011;1015;49.756;6.994;2023-08-12T14:08:09;2.90;;;2.53;;
2021;SDS011;1015;49.756;6.994;2023-08-12T14:10:36;3.00;;;2.70;;
2021;SDS011;1015;49.756;6.994;2023-08-12T14:13:03;3.17;;;2.87;;
2021;SDS011;1015;49.756;6.994;2023-08-12T14:15:33;3.90;;;3.10;;
2021;SDS011;1015;49.756;6.994;2023-08-12T14:18:00;4.57;;;2.90;;
2021;SDS011;1015;49.756;6.994;2023-08-12T14:20:27;3.00;;;2.80;;
2021;SDS011;1015;49.756;6.994;2023-08-12T14:22:54;7.20;;;3.37;;
2021;SDS011;1015;49.756;6.994;2023-08-12T14:25:21;3.27;;;3.07;;
2021;SDS011;1015;49.756;6.994;2023-08-12T14:27:48;5.90;;;3.00;;
2021;SDS011;1015;49.756;6.994;2023-08-12T14:30:17;4.10;;;3.70;;
2021;SDS011;1015;49.756;6.994;2023-08-12T14:32:46;3.80;;;3.40;;
2021;SDS011;1015;49.756;6.994;2023-08-12T14:35:13;4.60;;;3.50;;
2021;SDS011;1015;49.756;6.994;2023-08-12T14:37:40;4.37;;;3.47;;
2021;SDS011;1015;49.756;6.994;2023-08-12T14:40:07;7.37;;;3.67;;
2021;SDS011;1015;49.756;6.994;2023-08-12T14:42:35;5.40;;;3.60;;
2021;SDS011;1015;49.756;6.994;2023-08-12T14:45:02;4.03;;;3.63;;
2021;SDS011;1015;49.756;6.994;2023-08-12T14:47:29;4.70;;;3.83;;
2021;SDS011;1015;49.756;6.994;2023-08-12T14:49:57;5.53;;;3.90;;
2021;SDS011;1015;49.756;6.994;2023-08-12T14:52:24;4.53;;;4.13;;
2021;SDS011;1015;49.756;6.994;2023-08-12T14:54:51;4.90;;;4.50;;
2021;SDS011;1015;49.756;6.994;2023-08-12T14:57:18;6.20;;;4.13;;
2021;SDS011;1015;49.756;6.994;2023-08-12T14:59:46;4.87;;;4.47;;
2021;SDS011;1015;49.756;6.994;2023-08-12T15:02:15;4.80;;;4.37;;
2021;SDS011;1015;49.756;6.994;2023-08-12T15:04:42;4.93;;;4.47;;
2021;SDS011;1015;49.756;6.994;2023-08-12T15:07:11;5.87;;;4.10;;
2021;SDS011;1015;49.756;6.994;2023-08-12T15:09:38;4.83;;;4.43;;
2021;SDS011;1015;49.756;6.994;2023-08-12T15:12:05;5.10;;;4.30;;
2021;SDS011;1015;49.756;6.994;2023-08-12T15:14:32;6.23;;;4.63;;